Terminal Aerodrome Forecast
Issued by NWS

Current Version | Previous Version | Text Only | Print | Product List | Glossary On
Versions: 1 2 3 4 5 6 7 8 9 10 11 12 13 14 15 16 17 18 19 20 21 22 23 24 25 26 27 28 29 30
000 FTUS41 KILN 011300 AAA TAFLCK TAF AMD KLCK 011307Z 0113/0212 14005KT 2SM -SN BR OVC012 TEMPO 0113/0115 OVC008 FM011500 14008KT P6SM SCT015 OVC100 FM012000 15010KT 3SM -RA BR BKN020 OVC040 TEMPO 0120/0124 2SM -RA BR OVC012 FM020400 24015KT P6SM VCSH OVC015 FM021000 30015G25KT P6SM OVC018=

USA.gov is the U.S. government's official web portal to all federal, state and local government web resources and services.